sensor_id;sensor_type;location;lat;lon;timestamp;P1;P2;P0
78512;PMS5003;67809;55.034;73.462;2023-07-02T00:01:45;9.00;8.00;6.00
78512;PMS5003;67809;55.034;73.462;2023-07-02T00:04:12;7.00;7.00;4.75
78512;PMS5003;67809;55.034;73.462;2023-07-02T00:06:44;7.00;6.00;5.00
78512;PMS5003;67809;55.034;73.462;2023-07-02T00:09:11;9.00;8.50;6.00
78512;PMS5003;67809;55.034;73.462;2023-07-02T00:11:40;7.00;7.00;5.00
78512;PMS5003;67809;55.034;73.462;2023-07-02T00:14:07;7.25;6.50;4.00
78512;PMS5003;67809;55.034;73.462;2023-07-02T00:16:34;7.00;6.00;5.00
78512;PMS5003;67809;55.034;73.462;2023-07-02T00:19:00;7.25;7.00;5.00
78512;PMS5003;67809;55.034;73.462;2023-07-02T00:21:26;8.00;7.00;5.00
78512;PMS5003;67809;55.034;73.462;2023-07-02T00:23:57;9.00;8.00;6.00
78512;PMS5003;67809;55.034;73.462;2023-07-02T00:26:24;10.00;9.25;7.00
78512;PMS5003;67809;55.034;73.462;2023-07-02T00:28:51;8.50;7.25;5.00
78512;PMS5003;67809;55.034;73.462;2023-07-02T00:31:17;8.00;7.00;5.00
78512;PMS5003;67809;55.034;73.462;2023-07-02T00:33:43;7.00;6.25;4.00
78512;PMS5003;67809;55.034;73.462;2023-07-02T00:36:09;7.00;6.00;4.00
78512;PMS5003;67809;55.034;73.462;2023-07-02T00:38:44;6.00;5.25;4.00
78512;PMS5003;67809;55.034;73.462;2023-07-02T00:41:10;7.00;6.00;4.00
78512;PMS5003;67809;55.034;73.462;2023-07-02T00:43:37;6.00;6.00;4.00
78512;PMS5003;67809;55.034;73.462;2023-07-02T00:46:13;8.00;7.00;4.00
78512;PMS5003;67809;55.034;73.462;2023-07-02T00:48:44;6.25;6.00;4.00
78512;PMS5003;67809;55.034;73.462;2023-07-02T00:51:15;7.25;6.00;4.00
78512;PMS5003;67809;55.034;73.462;2023-07-02T00:53:41;6.75;5.25;4.00
78512;PMS5003;67809;55.034;73.462;2023-07-02T00:56:07;7.50;6.00;4.00
78512;PMS5003;67809;55.034;73.462;2023-07-02T00:58:34;10.25;9.00;5.50
78512;PMS5003;67809;55.034;73.462;2023-07-02T01:01:03;7.00;6.00;4.00
78512;PMS5003;67809;55.034;73.462;2023-07-02T01:03:29;9.00;8.00;5.00
78512;PMS5003;67809;55.034;73.462;2023-07-02T01:05:59;7.00;6.00;5.00
78512;PMS5003;67809;55.034;73.462;2023-07-02T01:08:30;8.75;7.00;5.00
78512;PMS5003;67809;55.034;73.462;2023-07-02T01:10:57;8.00;7.00;4.75
78512;PMS5003;67809;55.034;73.462;2023-07-02T01:13:24;7.25;7.00;5.00
78512;PMS5003;67809;55.034;73.462;2023-07-02T01:15:51;7.00;6.00;4.00
78512;PMS5003;67809;55.034;73.462;2023-07-02T01:18:17;7.75;7.00;5.00
78512;PMS5003;67809;55.034;73.462;2023-07-02T01:20:43;7.00;6.00;4.00
78512;PMS5003;67809;55.034;73.462;2023-07-02T01:23:10;7.00;7.00;5.00
78512;PMS5003;67809;55.034;73.462;2023-07-02T01:25:37;7.00;6.00;4.00
78512;PMS5003;67809;55.034;73.462;2023-07-02T01:28:04;9.00;7.25;5.00
78512;PMS5003;67809;55.034;73.462;2023-07-02T01:30:30;8.00;7.00;5.00
78512;PMS5003;67809;55.034;73.462;2023-07-02T01:32:56;8.00;7.00;5.00
78512;PMS5003;67809;55.034;73.462;2023-07-02T01:35:23;7.00;6.25;5.00
78512;PMS5003;67809;55.034;73.462;2023-07-02T01:37:49;8.00;7.00;5.00
78512;PMS5003;67809;55.034;73.462;2023-07-02T01:40:15;8.00;7.00;5.00
78512;PMS5003;67809;55.034;73.462;2023-07-02T01:42:42;9.25;7.00;5.00
78512;PMS5003;67809;55.034;73.462;2023-07-02T01:45:09;8.00;7.00;5.50
78512;PMS5003;67809;55.034;73.462;2023-07-02T01:47:35;6.75;6.00;4.25
78512;PMS5003;67809;55.034;73.462;2023-07-02T01:50:03;6.00;6.00;5.00
78512;PMS5003;67809;55.034;73.462;2023-07-02T01:52:29;8.00;7.00;4.00
78512;PMS5003;67809;55.034;73.462;2023-07-02T01:55:00;7.00;6.00;4.00
78512;PMS5003;67809;55.034;73.462;2023-07-02T01:57:27;6.00;6.00;4.00
78512;PMS5003;67809;55.034;73.462;2023-07-02T01:59:56;7.00;6.50;4.25
78512;PMS5003;67809;55.034;73.462;2023-07-02T02:02:24;7.00;6.00;4.00
78512;PMS5003;67809;55.034;73.462;2023-07-02T02:04:50;7.00;6.00;4.00
78512;PMS5003;67809;55.034;73.462;2023-07-02T02:07:17;8.67;8.00;5.00
78512;PMS5003;67809;55.034;73.462;2023-07-02T02:09:43;7.00;6.00;4.00
78512;PMS5003;67809;55.034;73.462;2023-07-02T02:12:09;6.25;5.75;4.00
78512;PMS5003;67809;55.034;73.462;2023-07-02T02:14:36;10.00;9.00;5.75
78512;PMS5003;67809;55.034;73.462;2023-07-02T02:17:02;7.33;6.00;4.00
78512;PMS5003;67809;55.034;73.462;2023-07-02T02:19:28;6.00;6.00;4.00
78512;PMS5003;67809;55.034;73.462;2023-07-02T02:21:54;9.00;8.00;6.00
78512;PMS5003;67809;55.034;73.462;2023-07-02T02:24:20;7.00;6.00;4.00
78512;PMS5003;67809;55.034;73.462;2023-07-02T02:26:46;6.00;5.00;3.00
78512;PMS5003;67809;55.034;73.462;2023-07-02T02:29:12;5.00;5.00;4.00
78512;PMS5003;67809;55.034;73.462;2023-07-02T02:31:39;6.00;5.00;4.00
78512;PMS5003;67809;55.034;73.462;2023-07-02T02:34:05;6.00;6.00;4.00
78512;PMS5003;67809;55.034;73.462;2023-07-02T02:36:31;6.75;6.00;4.25
78512;PMS5003;67809;55.034;73.462;2023-07-02T02:38:58;6.00;5.00;4.00
78512;PMS5003;67809;55.034;73.462;2023-07-02T02:41:26;6.00;5.00;3.00
78512;PMS5003;67809;55.034;73.462;2023-07-02T02:43:53;6.00;5.00;3.00
78512;PMS5003;67809;55.034;73.462;2023-07-02T02:46:20;5.00;4.00;3.00
78512;PMS5003;67809;55.034;73.462;2023-07-02T02:48:47;5.00;4.50;3.25
78512;PMS5003;67809;55.034;73.462;2023-07-02T02:51:13;6.00;5.00;3.00
78512;PMS5003;67809;55.034;73.462;2023-07-02T02:53:40;6.00;6.00;4.00
78512;PMS5003;67809;55.034;73.462;2023-07-02T02:56:06;6.00;5.00;4.00
78512;PMS5003;67809;55.034;73.462;2023-07-02T02:58:32;7.00;6.00;4.00
78512;PMS5003;67809;55.034;73.462;2023-07-02T03:00:58;5.00;4.75;4.00
78512;PMS5003;67809;55.034;73.462;2023-07-02T03:03:24;7.00;6.00;3.00
78512;PMS5003;67809;55.034;73.462;2023-07-02T03:05:50;7.00;6.00;3.50
78512;PMS5003;67809;55.034;73.462;2023-07-02T03:08:16;5.50;5.00;3.00
78512;PMS5003;67809;55.034;73.462;2023-07-02T03:10:43;5.00;5.00;3.00
78512;PMS5003;67809;55.034;73.462;2023-07-02T03:13:09;8.00;7.00;4.00
78512;PMS5003;67809;55.034;73.462;2023-07-02T03:15:35;6.00;5.00;4.00
78512;PMS5003;67809;55.034;73.462;2023-07-02T03:18:01;6.00;5.00;4.00
78512;PMS5003;67809;55.034;73.462;2023-07-02T03:20:28;7.25;6.00;4.00
78512;PMS5003;67809;55.034;73.462;2023-07-02T03:22:54;7.00;6.00;4.00
78512;PMS5003;67809;55.034;73.462;2023-07-02T03:25:21;5.00;5.00;4.00
78512;PMS5003;67809;55.034;73.462;2023-07-02T03:27:47;19.00;16.00;9.00
78512;PMS5003;67809;55.034;73.462;2023-07-02T03:30:13;10.00;9.00;6.00
78512;PMS5003;67809;55.034;73.462;2023-07-02T03:32:39;8.00;7.00;5.00
78512;PMS5003;67809;55.034;73.462;2023-07-02T03:35:06;6.00;5.50;4.00
78512;PMS5003;67809;55.034;73.462;2023-07-02T03:37:32;8.00;7.00;5.00
78512;PMS5003;67809;55.034;73.462;2023-07-02T03:39:58;7.00;6.00;3.25
78512;PMS5003;67809;55.034;73.462;2023-07-02T03:42:24;5.00;5.00;4.00
78512;PMS5003;67809;55.034;73.462;2023-07-02T03:44:50;7.00;6.25;4.00
78512;PMS5003;67809;55.034;73.462;2023-07-02T03:47:17;6.00;6.00;4.00
78512;PMS5003;67809;55.034;73.462;2023-07-02T03:49:45;7.00;6.00;4.00
78512;PMS5003;67809;55.034;73.462;2023-07-02T03:52:11;9.25;8.00;5.25
78512;PMS5003;67809;55.034;73.462;2023-07-02T03:54:37;5.25;5.00;4.00
78512;PMS5003;67809;55.034;73.462;2023-07-02T03:57:03;7.00;6.00;4.00
78512;PMS5003;67809;55.034;73.462;2023-07-02T03:59:31;7.00;5.50;4.00
78512;PMS5003;67809;55.034;73.462;2023-07-02T04:01:57;8.00;7.00;5.00
78512;PMS5003;67809;55.034;73.462;2023-07-02T04:04:23;6.00;5.00;3.00
78512;PMS5003;67809;55.034;73.462;2023-07-02T04:06:49;7.25;5.25;4.00
78512;PMS5003;67809;55.034;73.462;2023-07-02T04:09:15;9.00;8.00;5.00
78512;PMS5003;67809;55.034;73.462;2023-07-02T04:11:41;7.00;6.50;4.50
78512;PMS5003;67809;55.034;73.462;2023-07-02T04:14:07;7.25;7.00;5.00
78512;PMS5003;67809;55.034;73.462;2023-07-02T04:16:33;8.00;7.75;5.00
78512;PMS5003;67809;55.034;73.462;2023-07-02T04:18:59;7.00;6.00;4.00
78512;PMS5003;67809;55.034;73.462;2023-07-02T04:21:26;8.00;7.00;5.25
78512;PMS5003;67809;55.034;73.462;2023-07-02T04:23:52;9.00;8.00;6.00
78512;PMS5003;67809;55.034;73.462;2023-07-02T04:26:18;7.00;6.00;4.00
78512;PMS5003;67809;55.034;73.462;2023-07-02T04:28:44;8.33;7.33;4.67
78512;PMS5003;67809;55.034;73.462;2023-07-02T04:31:10;8.00;7.00;5.00
78512;PMS5003;67809;55.034;73.462;2023-07-02T04:33:36;7.00;6.00;4.00
78512;PMS5003;67809;55.034;73.462;2023-07-02T04:36:03;6.00;6.00;5.00
78512;PMS5003;67809;55.034;73.462;2023-07-02T04:38:29;7.00;6.00;4.00
78512;PMS5003;67809;55.034;73.462;2023-07-02T04:40:55;7.00;6.00;4.00
78512;PMS5003;67809;55.034;73.462;2023-07-02T04:43:27;6.00;6.00;4.00
78512;PMS5003;67809;55.034;73.462;2023-07-02T04:45:55;8.75;7.50;5.00
78512;PMS5003;67809;55.034;73.462;2023-07-02T04:48:21;8.00;7.25;5.75
78512;PMS5003;67809;55.034;73.462;2023-07-02T04:50:47;8.00;7.25;5.00
78512;PMS5003;67809;55.034;73.462;2023-07-02T04:53:13;8.00;7.00;5.00
78512;PMS5003;67809;55.034;73.462;2023-07-02T04:55:48;9.00;8.00;6.00
78512;PMS5003;67809;55.034;73.462;2023-07-02T04:58:14;8.00;7.00;5.00
78512;PMS5003;67809;55.034;73.462;2023-07-02T05:00:40;9.00;7.50;5.00
78512;PMS5003;67809;55.034;73.462;2023-07-02T05:03:06;9.25;9.00;5.00
78512;PMS5003;67809;55.034;73.462;2023-07-02T05:05:32;9.00;8.25;6.00
78512;PMS5003;67809;55.034;73.462;2023-07-02T05:07:58;8.33;7.33;5.33
78512;PMS5003;67809;55.034;73.462;2023-07-02T05:10:24;7.50;7.00;4.50
78512;PMS5003;67809;55.034;73.462;2023-07-02T05:12:50;8.75;7.00;5.00
78512;PMS5003;67809;55.034;73.462;2023-07-02T05:15:16;9.50;8.25;6.00
78512;PMS5003;67809;55.034;73.462;2023-07-02T05:17:43;6.67;6.00;4.67
78512;PMS5003;67809;55.034;73.462;2023-07-02T05:20:09;9.00;8.00;6.00
78512;PMS5003;67809;55.034;73.462;2023-07-02T05:22:35;9.00;8.00;5.25
78512;PMS5003;67809;55.034;73.462;2023-07-02T05:25:01;8.00;8.00;6.00
78512;PMS5003;67809;55.034;73.462;2023-07-02T05:27:27;9.00;8.00;5.00
78512;PMS5003;67809;55.034;73.462;2023-07-02T05:29:53;10.00;9.00;6.00
78512;PMS5003;67809;55.034;73.462;2023-07-02T05:32:19;10.75;9.00;5.00
78512;PMS5003;67809;55.034;73.462;2023-07-02T05:34:46;9.00;8.00;5.25
78512;PMS5003;67809;55.034;73.462;2023-07-02T05:37:12;9.00;9.00;6.00
78512;PMS5003;67809;55.034;73.462;2023-07-02T05:39:38;8.00;7.00;5.00
78512;PMS5003;67809;55.034;73.462;2023-07-02T05:42:04;8.00;7.00;6.00
78512;PMS5003;67809;55.034;73.462;2023-07-02T05:44:30;10.00;9.00;5.00
78512;PMS5003;67809;55.034;73.462;2023-07-02T05:46:56;8.25;7.00;5.00
78512;PMS5003;67809;55.034;73.462;2023-07-02T05:49:22;9.00;9.00;6.00
78512;PMS5003;67809;55.034;73.462;2023-07-02T05:51:48;10.00;9.00;6.00
78512;PMS5003;67809;55.034;73.462;2023-07-02T05:54:14;9.25;8.25;5.00
78512;PMS5003;67809;55.034;73.462;2023-07-02T05:56:40;8.00;8.00;6.00
78512;PMS5003;67809;55.034;73.462;2023-07-02T05:59:06;9.00;8.00;5.33
78512;PMS5003;67809;55.034;73.462;2023-07-02T06:01:32;8.00;7.00;5.00
78512;PMS5003;67809;55.034;73.462;2023-07-02T06:03:58;8.00;7.00;4.75
78512;PMS5003;67809;55.034;73.462;2023-07-02T06:06:24;8.00;7.00;5.00
78512;PMS5003;67809;55.034;73.462;2023-07-02T06:08:50;9.00;8.00;5.33
78512;PMS5003;67809;55.034;73.462;2023-07-02T06:11:17;9.00;8.00;6.00
78512;PMS5003;67809;55.034;73.462;2023-07-02T06:13:43;8.00;8.00;5.00
78512;PMS5003;67809;55.034;73.462;2023-07-02T06:16:09;9.50;8.50;6.00
78512;PMS5003;67809;55.034;73.462;2023-07-02T06:18:35;11.00;10.00;6.75
78512;PMS5003;67809;55.034;73.462;2023-07-02T06:21:01;11.00;10.00;8.00
78512;PMS5003;67809;55.034;73.462;2023-07-02T06:23:29;13.25;12.25;8.00
78512;PMS5003;67809;55.034;73.462;2023-07-02T06:25:55;10.00;9.00;7.00
78512;PMS5003;67809;55.034;73.462;2023-07-02T06:28:25;11.00;10.00;7.00
78512;PMS5003;67809;55.034;73.462;2023-07-02T06:30:51;10.00;9.00;7.00
78512;PMS5003;67809;55.034;73.462;2023-07-02T06:33:17;8.75;7.75;5.00
78512;PMS5003;67809;55.034;73.462;2023-07-02T06:35:43;10.00;9.00;7.00
78512;PMS5003;67809;55.034;73.462;2023-07-02T06:38:09;10.00;9.00;7.00
78512;PMS5003;67809;55.034;73.462;2023-07-02T06:40:35;9.00;8.00;6.00
78512;PMS5003;67809;55.034;73.462;2023-07-02T06:43:02;11.25;10.00;6.00
78512;PMS5003;67809;55.034;73.462;2023-07-02T06:45:28;10.00;8.50;6.00
78512;PMS5003;67809;55.034;73.462;2023-07-02T06:47:54;9.00;8.00;5.50
78512;PMS5003;67809;55.034;73.462;2023-07-02T06:50:20;10.00;9.00;7.00
78512;PMS5003;67809;55.034;73.462;2023-07-02T06:52:47;9.00;8.25;6.00
78512;PMS5003;67809;55.034;73.462;2023-07-02T06:55:13;10.00;9.00;6.00
78512;PMS5003;67809;55.034;73.462;2023-07-02T06:57:42;13.00;11.00;7.00
78512;PMS5003;67809;55.034;73.462;2023-07-02T07:00:13;10.00;9.00;6.00
78512;PMS5003;67809;55.034;73.462;2023-07-02T07:02:41;12.00;11.00;9.00
78512;PMS5003;67809;55.034;73.462;2023-07-02T07:05:07;10.00;9.00;7.00
78512;PMS5003;67809;55.034;73.462;2023-07-02T07:07:34;10.00;9.00;7.00
78512;PMS5003;67809;55.034;73.462;2023-07-02T07:10:00;11.00;10.25;7.50
78512;PMS5003;67809;55.034;73.462;2023-07-02T07:12:27;10.00;10.00;7.00
78512;PMS5003;67809;55.034;73.462;2023-07-02T07:14:53;12.00;11.00;7.00
78512;PMS5003;67809;55.034;73.462;2023-07-02T07:17:19;10.00;10.00;7.00
78512;PMS5003;67809;55.034;73.462;2023-07-02T07:19:45;11.00;11.00;7.33
78512;PMS5003;67809;55.034;73.462;2023-07-02T07:22:11;9.50;9.00;6.00
78512;PMS5003;67809;55.034;73.462;2023-07-02T07:24:37;10.00;9.00;7.00
78512;PMS5003;67809;55.034;73.462;2023-07-02T07:27:03;9.75;9.00;6.00
78512;PMS5003;67809;55.034;73.462;2023-07-02T07:29:29;11.00;10.67;7.67
78512;PMS5003;67809;55.034;73.462;2023-07-02T07:31:55;10.00;9.00;6.00
78512;PMS5003;67809;55.034;73.462;2023-07-02T07:34:22;10.00;9.00;6.00
78512;PMS5003;67809;55.034;73.462;2023-07-02T07:36:48;10.00;9.00;6.00
78512;PMS5003;67809;55.034;73.462;2023-07-02T07:39:14;11.00;10.00;7.00
78512;PMS5003;67809;55.034;73.462;2023-07-02T07:41:40;9.00;9.00;7.00
78512;PMS5003;67809;55.034;73.462;2023-07-02T07:44:06;9.75;9.00;6.00
78512;PMS5003;67809;55.034;73.462;2023-07-02T07:46:32;9.00;8.00;6.00
78512;PMS5003;67809;55.034;73.462;2023-07-02T07:49:01;9.00;8.00;6.00
78512;PMS5003;67809;55.034;73.462;2023-07-02T07:51:27;9.00;9.00;7.00
78512;PMS5003;67809;55.034;73.462;2023-07-02T07:53:53;10.00;9.00;6.00
78512;PMS5003;67809;55.034;73.462;2023-07-02T07:56:19;10.00;10.00;7.00
78512;PMS5003;67809;55.034;73.462;2023-07-02T07:58:45;13.00;12.00;8.00
78512;PMS5003;67809;55.034;73.462;2023-07-02T08:01:11;11.00;10.00;7.00
78512;PMS5003;67809;55.034;73.462;2023-07-02T08:03:37;10.50;9.75;7.00
78512;PMS5003;67809;55.034;73.462;2023-07-02T08:06:04;11.00;10.00;7.00
78512;PMS5003;67809;55.034;73.462;2023-07-02T08:08:30;10.50;10.00;7.50
78512;PMS5003;67809;55.034;73.462;2023-07-02T08:10:56;9.00;8.00;6.00
78512;PMS5003;67809;55.034;73.462;2023-07-02T08:13:22;10.00;9.00;6.00
78512;PMS5003;67809;55.034;73.462;2023-07-02T08:15:48;11.00;10.00;6.75
78512;PMS5003;67809;55.034;73.462;2023-07-02T08:18:14;10.00;9.50;6.50
78512;PMS5003;67809;55.034;73.462;2023-07-02T08:20:40;10.00;9.00;6.00
78512;PMS5003;67809;55.034;73.462;2023-07-02T08:23:06;11.50;10.00;7.00
78512;PMS5003;67809;55.034;73.462;2023-07-02T08:25:33;10.00;9.25;8.00
78512;PMS5003;67809;55.034;73.462;2023-07-02T08:27:59;10.00;9.00;7.00
78512;PMS5003;67809;55.034;73.462;2023-07-02T08:30:25;10.00;9.50;6.50
78512;PMS5003;67809;55.034;73.462;2023-07-02T08:32:52;9.00;9.00;6.00
78512;PMS5003;67809;55.034;73.462;2023-07-02T08:35:19;11.50;10.00;7.00
78512;PMS5003;67809;55.034;73.462;2023-07-02T08:37:46;11.00;10.00;7.00
78512;PMS5003;67809;55.034;73.462;2023-07-02T08:40:15;9.00;9.00;7.00
78512;PMS5003;67809;55.034;73.462;2023-07-02T08:42:42;10.50;9.50;7.00
78512;PMS5003;67809;55.034;73.462;2023-07-02T08:45:08;10.50;9.50;7.00
78512;PMS5003;67809;55.034;73.462;2023-07-02T08:47:35;13.75;12.75;9.75
78512;PMS5003;67809;55.034;73.462;2023-07-02T08:50:03;9.00;9.00;6.00
78512;PMS5003;67809;55.034;73.462;2023-07-02T08:52:30;8.00;8.00;6.00
78512;PMS5003;67809;55.034;73.462;2023-07-02T08:54:56;9.00;9.00;6.00
78512;PMS5003;67809;55.034;73.462;2023-07-02T08:57:22;10.75;10.00;7.00
78512;PMS5003;67809;55.034;73.462;2023-07-02T08:59:50;9.00;9.00;7.00
78512;PMS5003;67809;55.034;73.462;2023-07-02T09:02:17;11.00;10.00;7.00
78512;PMS5003;67809;55.034;73.462;2023-07-02T09:04:43;9.25;9.00;6.00
78512;PMS5003;67809;55.034;73.462;2023-07-02T09:07:10;11.00;10.00;7.00
78512;PMS5003;67809;55.034;73.462;2023-07-02T09:09:46;9.00;9.00;7.00
78512;PMS5003;67809;55.034;73.462;2023-07-02T09:15:00;10.00;9.00;6.00
78512;PMS5003;67809;55.034;73.462;2023-07-02T09:17:26;9.00;9.00;6.00
78512;PMS5003;67809;55.034;73.462;2023-07-02T09:19:53;11.00;9.00;7.00
78512;PMS5003;67809;55.034;73.462;2023-07-02T09:22:19;8.33;8.00;6.00
78512;PMS5003;67809;55.034;73.462;2023-07-02T09:24:55;8.00;8.00;6.00
78512;PMS5003;67809;55.034;73.462;2023-07-02T09:27:41;8.00;8.00;6.25
78512;PMS5003;67809;55.034;73.462;2023-07-02T09:30:14;10.00;9.00;7.00
78512;PMS5003;67809;55.034;73.462;2023-07-02T09:32:44;8.00;8.00;6.00
78512;PMS5003;67809;55.034;73.462;2023-07-02T09:35:10;8.25;8.00;6.25
78512;PMS5003;67809;55.034;73.462;2023-07-02T09:37:36;9.00;9.00;7.00
78512;PMS5003;67809;55.034;73.462;2023-07-02T09:40:06;9.00;8.00;7.00
78512;PMS5003;67809;55.034;73.462;2023-07-02T09:42:34;9.00;8.33;7.00
78512;PMS5003;67809;55.034;73.462;2023-07-02T09:45:01;7.75;7.75;6.00
78512;PMS5003;67809;55.034;73.462;2023-07-02T09:47:29;8.00;8.00;6.00
78512;PMS5003;67809;55.034;73.462;2023-07-02T09:49:58;9.00;8.00;6.25
78512;PMS5003;67809;55.034;73.462;2023-07-02T09:52:26;10.00;9.00;7.00
78512;PMS5003;67809;55.034;73.462;2023-07-02T09:54:53;12.00;11.00;8.00
78512;PMS5003;67809;55.034;73.462;2023-07-02T09:57:19;9.00;9.00;7.00
78512;PMS5003;67809;55.034;73.462;2023-07-02T09:59:45;8.00;8.00;6.00
78512;PMS5003;67809;55.034;73.462;2023-07-02T10:02:12;10.75;10.00;7.50
78512;PMS5003;67809;55.034;73.462;2023-07-02T10:04:42;8.00;8.00;6.00
78512;PMS5003;67809;55.034;73.462;2023-07-02T10:07:09;8.25;7.75;6.00
78512;PMS5003;67809;55.034;73.462;2023-07-02T10:09:44;7.75;7.50;6.00
78512;PMS5003;67809;55.034;73.462;2023-07-02T10:12:15;10.00;9.00;6.00
78512;PMS5003;67809;55.034;73.462;2023-07-02T10:14:42;9.75;8.75;6.75
78512;PMS5003;67809;55.034;73.462;2023-07-02T10:17:09;9.00;9.00;6.00
78512;PMS5003;67809;55.034;73.462;2023-07-02T10:19:35;8.00;7.50;6.00
78512;PMS5003;67809;55.034;73.462;2023-07-02T10:22:02;9.00;8.00;6.00
78512;PMS5003;67809;55.034;73.462;2023-07-02T10:24:28;9.00;8.00;6.50
78512;PMS5003;67809;55.034;73.462;2023-07-02T10:27:00;10.00;9.00;7.00
78512;PMS5003;67809;55.034;73.462;2023-07-02T10:29:27;9.00;8.75;7.00
78512;PMS5003;67809;55.034;73.462;2023-07-02T10:31:54;10.00;9.50;6.25
78512;PMS5003;67809;55.034;73.462;2023-07-02T10:34:34;9.00;8.25;6.00
78512;PMS5003;67809;55.034;73.462;2023-07-02T10:37:00;8.00;8.00;6.00
78512;PMS5003;67809;55.034;73.462;2023-07-02T10:39:27;8.00;7.50;6.00
78512;PMS5003;67809;55.034;73.462;2023-07-02T10:42:05;8.00;7.00;6.00
78512;PMS5003;67809;55.034;73.462;2023-07-02T10:44:31;9.00;8.00;6.00
78512;PMS5003;67809;55.034;73.462;2023-07-02T10:46:57;9.00;8.00;7.00
78512;PMS5003;67809;55.034;73.462;2023-07-02T10:49:30;9.00;8.00;6.00
78512;PMS5003;67809;55.034;73.462;2023-07-02T10:51:57;9.00;8.00;6.00
78512;PMS5003;67809;55.034;73.462;2023-07-02T10:54:23;7.75;7.75;6.00
78512;PMS5003;67809;55.034;73.462;2023-07-02T10:56:49;8.25;8.00;6.00
78512;PMS5003;67809;55.034;73.462;2023-07-02T10:59:24;9.00;9.00;6.25
78512;PMS5003;67809;55.034;73.462;2023-07-02T11:01:50;9.33;9.00;7.00
78512;PMS5003;67809;55.034;73.462;2023-07-02T11:04:17;7.00;7.00;6.00
78512;PMS5003;67809;55.034;73.462;2023-07-02T11:06:43;10.00;9.00;7.00
78512;PMS5003;67809;55.034;73.462;2023-07-02T11:09:16;10.00;9.00;7.00
78512;PMS5003;67809;55.034;73.462;2023-07-02T11:11:59;9.00;8.00;6.00
78512;PMS5003;67809;55.034;73.462;2023-07-02T11:16:54;8.00;8.00;6.00
78512;PMS5003;67809;55.034;73.462;2023-07-02T11:19:21;9.00;8.00;6.00
78512;PMS5003;67809;55.034;73.462;2023-07-02T11:21:56;8.00;8.00;6.00
78512;PMS5003;67809;55.034;73.462;2023-07-02T11:24:30;10.00;9.00;7.00
78512;PMS5003;67809;55.034;73.462;2023-07-02T11:26:57;9.00;8.00;6.00
78512;PMS5003;67809;55.034;73.462;2023-07-02T11:29:23;8.00;8.00;6.00
78512;PMS5003;67809;55.034;73.462;2023-07-02T11:31:49;9.00;8.00;6.00
78512;PMS5003;67809;55.034;73.462;2023-07-02T11:34:16;8.00;7.25;6.00
78512;PMS5003;67809;55.034;73.462;2023-07-02T11:36:42;9.00;8.75;6.50
78512;PMS5003;67809;55.034;73.462;2023-07-02T11:39:08;7.00;7.00;5.00
78512;PMS5003;67809;55.034;73.462;2023-07-02T11:41:50;9.00;9.00;6.00
78512;PMS5003;67809;55.034;73.462;2023-07-02T11:44:25;7.00;7.00;5.00
78512;PMS5003;67809;55.034;73.462;2023-07-02T11:46:51;8.00;8.00;7.00
78512;PMS5003;67809;55.034;73.462;2023-07-02T11:49:18;9.00;8.00;6.00
78512;PMS5003;67809;55.034;73.462;2023-07-02T11:52:00;9.00;7.00;5.00
78512;PMS5003;67809;55.034;73.462;2023-07-02T11:54:34;8.25;8.00;6.00
78512;PMS5003;67809;55.034;73.462;2023-07-02T11:57:13;10.50;10.00;8.00
78512;PMS5003;67809;55.034;73.462;2023-07-02T11:59:39;8.00;7.75;5.50
78512;PMS5003;67809;55.034;73.462;2023-07-02T12:02:05;9.67;9.00;7.00
78512;PMS5003;67809;55.034;73.462;2023-07-02T12:04:31;8.00;8.00;6.00
78512;PMS5003;67809;55.034;73.462;2023-07-02T12:06:57;9.00;8.00;6.00
78512;PMS5003;67809;55.034;73.462;2023-07-02T12:09:23;7.00;7.00;5.50
78512;PMS5003;67809;55.034;73.462;2023-07-02T12:11:49;8.00;7.00;5.00
78512;PMS5003;67809;55.034;73.462;2023-07-02T12:14:15;8.25;8.00;5.75
78512;PMS5003;67809;55.034;73.462;2023-07-02T12:16:41;9.50;9.00;6.00
78512;PMS5003;67809;55.034;73.462;2023-07-02T12:19:07;8.75;8.00;5.00
78512;PMS5003;67809;55.034;73.462;2023-07-02T12:21:33;9.00;8.00;5.00
78512;PMS5003;67809;55.034;73.462;2023-07-02T12:24:02;8.00;7.67;6.00
78512;PMS5003;67809;55.034;73.462;2023-07-02T12:26:29;8.25;8.00;6.00
78512;PMS5003;67809;55.034;73.462;2023-07-02T12:28:55;12.00;11.00;7.25
78512;PMS5003;67809;55.034;73.462;2023-07-02T12:31:21;10.00;9.00;7.00
78512;PMS5003;67809;55.034;73.462;2023-07-02T12:33:47;10.00;9.00;6.00
78512;PMS5003;67809;55.034;73.462;2023-07-02T12:36:13;9.00;8.00;6.00
78512;PMS5003;67809;55.034;73.462;2023-07-02T12:38:39;9.00;9.00;7.00
78512;PMS5003;67809;55.034;73.462;2023-07-02T12:41:05;8.00;7.00;4.50
78512;PMS5003;67809;55.034;73.462;2023-07-02T12:43:31;8.00;7.00;5.00
78512;PMS5003;67809;55.034;73.462;2023-07-02T12:45:57;9.00;8.00;6.00
78512;PMS5003;67809;55.034;73.462;2023-07-02T12:48:23;9.00;9.00;6.50
78512;PMS5003;67809;55.034;73.462;2023-07-02T12:50:56;9.50;8.75;6.00
78512;PMS5003;67809;55.034;73.462;2023-07-02T12:53:23;9.00;9.00;6.25
78512;PMS5003;67809;55.034;73.462;2023-07-02T12:55:49;9.00;8.00;5.00
78512;PMS5003;67809;55.034;73.462;2023-07-02T12:58:15;10.00;9.00;6.00
78512;PMS5003;67809;55.034;73.462;2023-07-02T13:00:41;7.00;7.00;6.00
78512;PMS5003;67809;55.034;73.462;2023-07-02T13:03:10;8.00;7.00;5.00
78512;PMS5003;67809;55.034;73.462;2023-07-02T13:05:36;9.00;8.75;6.00
78512;PMS5003;67809;55.034;73.462;2023-07-02T13:08:02;7.25;7.00;5.75
78512;PMS5003;67809;55.034;73.462;2023-07-02T13:10:31;8.00;7.00;5.00
78512;PMS5003;67809;55.034;73.462;2023-07-02T13:12:58;8.00;8.00;6.00
78512;PMS5003;67809;55.034;73.462;2023-07-02T13:15:24;9.00;8.00;6.00
78512;PMS5003;67809;55.034;73.462;2023-07-02T13:17:50;8.00;7.00;5.00
78512;PMS5003;67809;55.034;73.462;2023-07-02T13:20:16;7.00;7.00;5.00
78512;PMS5003;67809;55.034;73.462;2023-07-02T13:22:42;7.00;7.00;5.00
78512;PMS5003;67809;55.034;73.462;2023-07-02T13:25:09;7.00;7.00;5.00
78512;PMS5003;67809;55.034;73.462;2023-07-02T13:27:35;6.00;6.00;4.00
78512;PMS5003;67809;55.034;73.462;2023-07-02T13:30:02;7.00;7.00;5.00
78512;PMS5003;67809;55.034;73.462;2023-07-02T13:32:30;7.00;7.00;5.00
78512;PMS5003;67809;55.034;73.462;2023-07-02T13:34:56;8.00;7.50;5.00
78512;PMS5003;67809;55.034;73.462;2023-07-02T13:37:22;8.00;8.00;5.00
78512;PMS5003;67809;55.034;73.462;2023-07-02T13:39:49;9.00;8.00;6.00
78512;PMS5003;67809;55.034;73.462;2023-07-02T13:42:15;7.25;7.00;5.00
78512;PMS5003;67809;55.034;73.462;2023-07-02T13:44:42;8.00;7.00;5.00
78512;PMS5003;67809;55.034;73.462;2023-07-02T13:47:08;9.00;9.00;6.00
78512;PMS5003;67809;55.034;73.462;2023-07-02T13:49:34;9.00;8.00;6.00
78512;PMS5003;67809;55.034;73.462;2023-07-02T13:52:00;10.00;9.00;6.50
78512;PMS5003;67809;55.034;73.462;2023-07-02T13:54:26;9.00;8.00;6.00
78512;PMS5003;67809;55.034;73.462;2023-07-02T13:56:52;9.00;9.00;6.00
78512;PMS5003;67809;55.034;73.462;2023-07-02T13:59:19;9.25;8.00;6.00
78512;PMS5003;67809;55.034;73.462;2023-07-02T14:01:46;11.00;10.00;7.00
78512;PMS5003;67809;55.034;73.462;2023-07-02T14:04:12;9.50;9.00;7.00
78512;PMS5003;67809;55.034;73.462;2023-07-02T14:06:40;11.00;10.00;7.00
78512;PMS5003;67809;55.034;73.462;2023-07-02T14:09:06;11.75;10.00;7.00
78512;PMS5003;67809;55.034;73.462;2023-07-02T14:11:33;16.00;14.00;9.00